Airfield :
LOGIN :

Register | Disclaimer

   EN    FR    IT 

 










Legend :    VFR   Marginal VFR   IFR   Intensive IFR   Very Intensive IFR
Visi :
Ceiling :
>= 8 km
>= 3000ft
5 to 8 km
1000 to 3000 ft
1500m to 5 km
500 to 1000 ft
800 to 1500m
200 to 500 ft
< 800m
< 200 ft
Symbols :   Thunderstorms  Fog  Heavy snow  Heavy precipitations  Wind > 20 kt
SIGMETs :     Misc.  Thunderstorms  Icing  Turbulence  Mountain Waves  Volcanic Ashes







- Airport Elevation : 1247 ft
- IATA code : PRG


LKPR - Praha Ruzyne

CURRENT METAR :
  • 271330Z VRB05KT CAVOK 23/10 Q1022 NOSIG

EXPIRED METARs :
  • 271300Z 10004KT 030V170 CAVOK 23/10 Q1023 NOSIG
  • 271230Z VRB05KT CAVOK 23/09 Q1023 NOSIG
  • 271200Z 01005KT 310V060 CAVOK 22/08 Q1023 NOSIG
  • 271130Z VRB03KT 9999 FEW049 22/09 Q1023 NOSIG
  • 271100Z VRB06G17KT 9999 FEW048 22/09 Q1023 NOSIG

TAF TAF LKPR
Valid from the 27 at 12:00 until the 28 at 18:00 UTC


271100Z 2712/2818 09006KT CAVOK
BECMG 2801/2804 17008KT
BECMG 2811/2814 11006KT
No reported NOTAMs for that airfield.



MET'MAP, your aeronautical weather chart ! - Copyright ORBIFLY December 2007 - Disclaimer

ORBIFLY MET'MAP TEAM :

Programming & Development : Alexandra Zaïnal
Concept & Development : Baudouin d'Aumeries
Co-Development & Prog : Marc-Olivier Méhu
Technical & hardware support : Manuel Goepfert

Contact : metmap@orbifly.com




SOURCES & CREDITS :

   NOAA